< < Back
Terminal Aerodrome Forecast


Current Version              Previous Versions:   1  2  3  4  5  6  7  8  9  

Terminal Aerodrome Forecast

075
FTUS42 KTAE 230500 RRA
TAFVLD
TAF
KVLD 230545Z 2306/2406 00000KT P6SM SKC
     FM231500 06007KT P6SM SKC=

Latest METAR

766
SAUS70 KWBC 230800 RRK
MTRVLD
METAR KVLD 230753Z AUTO 00000KT 10SM CLR 07/05 A3004 RMK AO2 SLP179
T00720050


USA.gov is the U.S. government's official web portal to all federal, state and local government web resources and services.